Hauptseite
METAR-TAF:

METAR-TAF

Flughäfen :

Fritzlar, Deutschland

Heeresflugplatz Fritzlar

Breite: 51-07N, Länge: 009-17E, Höhe: 172 m

Beobachtung

Neuester Wetterbericht von vor 35 Minuten, um 08:20 UTC
Wind 8 kt aus Süd
Temperatur 10°C
Luftfeuchtigkeit 66%
Luftdruck 1006 hPa
Sichtweite 10 km oder mehr
Durchbrochene Bewölkung in der Höhe von 3300 ft

METAR: ETHF 270820Z 18008KT 9999 BKN033 10/04 Q1006 BLU BLU

Zeit: 09:55 (08:55 UTC)

Prognose

Neuester Wetterbericht von vor 44 Minuten, um 08:11 UTC
Gültige Prognose vom 27 um 09 UTC bis 27 um 18 UTC
Wind 10 kt aus Süd
Sichtweite 10 km oder mehr
Durchbrochene Bewölkung in der Höhe von 3000 ft

TAF: ETHF 270811Z 2709/2718 19010KT 9999 NSW BKN030

Wetterbeobachtungen und Prognosen von mehr als 4000 Flughäfen (METAR und TAF Bericht).

Die verfügbaren Stationen werden durch gelbe und rote Markierungen auf der Karte dargestellt.

Führen Sie die Maus auf sie, um den Namen der Station zu sehen.

Darauf klicken, um die Beobachtung von Wetterbeobachtungen und Prognosen zu sehen.

Um die Karte zu ändern : klicken Sie auf den grünen Tasten mit einem schwarzen Kreuz Zum Vergrößern, auf den grünen Button mit einem Gedankenstrich zu verkleinern, oder auf die grünen Pfeile für benachbarte Karten.


METAR-TAF: